LHBS weather

Budaörs Airfield
Budaörs, Budapest, Hungary

Public forecast

Using degrees Celsius for public forecast. Weather courtesy of forecast.io.

Closest aviation weather report (METAR) to Budaörs Airfield

Closest report is Budapest Liszt Ferenc International Airport, 11.5 nm (21.2 km) E. Retrieved 2020/08/07 15:00 UTC (14 minutes ago):

LHBP 071500Z 09010KT CAVOK 31/15 Q1019 NOSIG

Closest aviation forecast (TAF) to Budaörs Airfield

Closest forecast is Budapest Liszt Ferenc International Airport, 11.5 nm (21.2 km) E. Retrieved 2020/08/07 12:27 UTC (3 hours ago):

TAF LHBP 071115Z 0712/0812 06009KT CAVOK BECMG 0716/0718 03006KT BECMG 0721/0723 33004KT BECMG 0807/0809 04007KT